Time;durP1;ratioP1;P1;durP2;ratioP2;P2;SDS_P1;SDS_P2;PMS_P1;PMS_P2;Temp;Humidity;BMP_temperature;BMP_pressure;BME280_temperature;BME280_humidity;BME280_pressure;Samples;Min_cycle;Max_cycle;Signal;HPM_P1;HPM_P2
2024/01/24 00:00:18;;;;;;;20.65;9.73;;;;;;;13.34;61.72;100443.88;5095297;28;20074;-49
2024/01/24 00:02:46;;;;;;;20.48;8.48;;;;;;;13.39;61.51;100444.16;5095352;28;20099;-49
2024/01/24 00:05:11;;;;;;;18.35;10.15;;;;;;;13.41;61.22;100446.63;5095197;28;20065;-49
2024/01/24 00:07:37;;;;;;;24.13;10.20;;;;;;;13.35;61.15;100442.88;5095202;28;20428;-49
2024/01/24 00:10:03;;;;;;;20.65;9.70;;;;;;;13.24;60.85;100445.06;5095085;28;20421;-50
2024/01/24 00:12:29;;;;;;;23.90;12.48;;;;;;;13.15;61.30;100447.72;5095460;28;20024;-49
2024/01/24 00:14:55;;;;;;;20.45;9.50;;;;;;;13.10;61.18;100443.97;5093719;28;20137;-49
2024/01/24 00:17:21;;;;;;;25.50;11.60;;;;;;;12.93;61.09;100433.53;5110719;28;20093;-50
2024/01/24 00:19:46;;;;;;;29.02;13.38;;;;;;;12.78;61.79;100425.53;5093680;28;20032;-49
2024/01/24 00:22:14;;;;;;;21.02;9.88;;;;;;;12.78;62.44;100416.81;5093566;28;20024;-49
2024/01/24 00:24:40;;;;;;;22.88;11.40;;;;;;;12.76;62.27;100406.44;5094800;28;20081;-49
2024/01/24 00:27:05;;;;;;;23.63;10.63;;;;;;;12.57;63.28;100406.84;5094840;28;20032;-49
2024/01/24 00:29:31;;;;;;;31.63;14.15;;;;;;;12.36;63.52;100396.91;5094807;28;20053;-50
2024/01/24 00:31:57;;;;;;;19.80;9.80;;;;;;;12.16;63.58;100383.28;5093195;28;20052;-49
2024/01/24 00:34:22;;;;;;;16.48;9.05;;;;;;;12.10;64.61;100379.50;5094675;28;20099;-49
2024/01/24 00:36:51;;;;;;;19.85;9.45;;;;;;;12.19;64.75;100378.53;5110316;28;20032;-50
2024/01/24 00:39:17;;;;;;;20.25;10.65;;;;;;;12.21;64.05;100377.50;5094531;28;20024;-49
2024/01/24 00:41:43;;;;;;;15.63;9.02;;;;;;;12.33;64.61;100379.59;5094553;28;20050;-49
2024/01/24 00:44:09;;;;;;;19.75;9.93;;;;;;;12.38;63.68;100376.47;5094465;28;20024;-49
2024/01/24 00:46:35;;;;;;;17.48;8.63;;;;;;;12.34;64.17;100373.34;5094390;28;20043;-49
2024/01/24 00:49:09;;;;;;;16.52;8.65;;;;;;;12.23;63.97;100378.16;5093958;28;20069;-49
2024/01/24 00:51:36;;;;;;;18.70;9.30;;;;;;;12.33;65.12;100376.97;5094430;28;20098;-49
2024/01/24 00:54:02;;;;;;;20.98;10.05;;;;;;;12.52;64.25;100386.28;5094307;28;20532;-49
2024/01/24 00:56:27;;;;;;;19.27;10.00;;;;;;;12.47;63.36;100372.81;5094234;28;20059;-49
2024/01/24 00:58:53;;;;;;;17.23;7.97;;;;;;;12.21;63.13;100377.50;5094215;28;20016;-49
2024/01/24 01:01:20;;;;;;;18.52;8.15;;;;;;;12.06;63.59;100377.41;5094152;28;20106;-49
2024/01/24 01:03:46;;;;;;;17.98;7.97;;;;;;;11.97;63.50;100384.47;5094133;28;20025;-49
2024/01/24 01:06:11;;;;;;;19.48;7.35;;;;;;;11.80;63.70;100381.84;5094060;28;20371;-49
2024/01/24 01:08:37;;;;;;;21.33;7.35;;;;;;;11.75;64.77;100376.28;5109720;28;20043;-49
2024/01/24 01:11:05;;;;;;;15.88;7.05;;;;;;;11.95;64.41;100375.91;5094003;28;20094;-49
2024/01/24 01:13:33;;;;;;;15.35;6.32;;;;;;;12.11;63.13;100372.44;5109735;28;20126;-49
2024/01/24 01:15:59;;;;;;;13.25;6.55;;;;;;;12.08;62.47;100373.59;5093885;28;20024;-49
2024/01/24 01:18:24;;;;;;;15.77;6.70;;;;;;;11.98;63.22;100386.94;5093860;28;20012;-49
2024/01/24 01:20:53;;;;;;;12.60;5.85;;;;;;;12.04;63.12;100389.91;5109800;28;20028;-49
2024/01/24 01:23:19;;;;;;;16.63;5.75;;;;;;;12.10;63.07;100382.16;5093745;28;20103;-49
2024/01/24 01:25:45;;;;;;;17.88;6.15;;;;;;;12.14;63.48;100380.00;5109367;28;20099;-49
2024/01/24 01:28:10;;;;;;;15.95;7.15;;;;;;;12.30;63.21;100369.44;5109394;28;20031;-49
2024/01/24 01:30:36;;;;;;;20.65;6.43;;;;;;;12.34;62.80;100362.00;5109053;28;20093;-49
2024/01/24 01:33:02;;;;;;;14.27;6.38;;;;;;;12.45;64.52;100361.63;5109309;28;20147;-49
2024/01/24 01:35:28;;;;;;;16.00;6.60;;;;;;;12.36;62.57;100362.66;5109205;28;20089;-49
2024/01/24 01:37:53;;;;;;;14.10;6.18;;;;;;;12.23;62.51;100365.81;5093403;28;20097;-49
2024/01/24 01:40:19;;;;;;;11.70;5.32;;;;;;;12.12;62.60;100358.31;5109047;28;20593;-47
2024/01/24 01:42:45;;;;;;;18.95;6.90;;;;;;;12.05;63.10;100344.97;5093371;28;20527;-47
2024/01/24 01:45:12;;;;;;;15.38;6.88;;;;;;;12.09;63.75;100327.03;5093248;28;20032;-47
2024/01/24 01:47:39;;;;;;;15.52;7.28;;;;;;;12.46;63.30;100326.41;5092130;28;20020;-47
2024/01/24 01:50:12;;;;;;;12.77;6.22;;;;;;;12.81;62.11;100331.34;5093255;28;20030;-47
2024/01/24 01:52:40;;;;;;;16.88;6.93;;;;;;;12.82;60.45;100325.06;5093232;28;20043;-47
2024/01/24 01:55:08;;;;;;;15.30;6.20;;;;;;;12.56;60.86;100321.75;5093113;28;20038;-47
2024/01/24 01:57:35;;;;;;;15.23;5.22;;;;;;;12.30;61.51;100323.88;5093136;28;20023;-47
2024/01/24 02:00:01;;;;;;;11.00;5.10;;;;;;;11.98;62.14;100344.03;5107889;28;20024;-47
2024/01/24 02:02:26;;;;;;;13.32;4.95;;;;;;;11.83;63.06;100335.97;5091793;28;20020;-47
2024/01/24 02:04:52;;;;;;;11.77;4.50;;;;;;;11.87;62.83;100332.03;5092883;28;20520;-47
2024/01/24 02:07:18;;;;;;;27.05;18.40;;;;;;;11.91;62.27;100330.72;5092903;28;20027;-47
2024/01/24 02:09:44;;;;;;;13.38;8.38;;;;;;;11.78;62.26;100341.72;5091824;28;20036;-47
2024/01/24 02:12:10;;;;;;;49.25;40.33;;;;;;;11.73;63.12;100341.41;5092823;28;20449;-47
2024/01/24 02:14:36;;;;;;;18.90;9.20;;;;;;;11.77;63.38;100348.00;5091463;28;20028;-47
2024/01/24 02:17:01;;;;;;;15.43;6.60;;;;;;;11.78;63.87;100343.53;5092570;28;20024;-47
2024/01/24 02:19:27;;;;;;;18.50;7.18;;;;;;;11.77;63.76;100348.00;5091513;28;20107;-47
2024/01/24 02:21:53;;;;;;;14.57;7.47;;;;;;;11.75;64.14;100344.69;5108368;28;20024;-47
2024/01/24 02:24:19;;;;;;;34.65;11.85;;;;;;;11.76;64.43;100348.16;5092478;28;20471;-47
2024/01/24 02:26:45;;;;;;;15.63;8.18;;;;;;;11.77;63.91;100348.00;5091243;28;20024;-47
2024/01/24 02:29:11;;;;;;;21.33;9.75;;;;;;;11.68;64.01;100354.22;5108154;28;20383;-48
2024/01/24 02:31:37;;;;;;;23.95;7.38;;;;;;;11.56;64.49;100352.94;5092170;28;20538;-47
2024/01/24 02:34:03;;;;;;;18.08;7.95;;;;;;;11.52;64.90;100354.25;5092456;28;20057;-47
2024/01/24 02:36:29;;;;;;;21.95;9.35;;;;;;;11.47;65.09;100346.88;5092406;28;20509;-47
2024/01/24 02:38:55;;;;;;;16.98;7.80;;;;;;;11.47;65.44;100344.25;5092372;28;20036;-47
2024/01/24 02:41:21;;;;;;;17.38;7.75;;;;;;;11.50;65.70;100343.09;5108244;28;20035;-47
2024/01/24 02:43:47;;;;;;;16.73;7.65;;;;;;;11.58;66.84;100338.63;5092260;28;20462;-47
2024/01/24 02:46:12;;;;;;;19.67;7.63;;;;;;;11.70;66.93;100333.84;5107887;28;20020;-47
2024/01/24 02:48:38;;;;;;;17.85;8.10;;;;;;;11.69;66.82;100340.13;5107904;28;20101;-47
2024/01/24 02:51:04;;;;;;;15.23;6.97;;;;;;;11.74;67.17;100339.59;5092126;28;20032;-47
2024/01/24 02:53:30;;;;;;;14.98;7.00;;;;;;;11.66;66.54;100350.94;5092173;28;20140;-47
2024/01/24 02:55:56;;;;;;;16.33;7.22;;;;;;;11.51;66.45;100340.28;5092144;28;20026;-47
2024/01/24 02:58:21;;;;;;;17.58;6.05;;;;;;;11.46;66.74;100347.84;5092130;28;20406;-47
2024/01/24 03:00:47;;;;;;;16.40;6.22;;;;;;;11.59;67.20;100352.63;5092087;28;20080;-47
2024/01/24 03:03:13;;;;;;;14.82;6.95;;;;;;;11.78;66.31;100348.81;5107606;28;20095;-47
2024/01/24 03:05:38;;;;;;;14.27;6.13;;;;;;;11.75;66.25;100354.38;5091984;28;20020;-47
2024/01/24 03:08:04;;;;;;;15.45;6.55;;;;;;;11.69;65.97;100352.41;5107571;28;20516;-47
2024/01/24 03:10:30;;;;;;;13.38;6.50;;;;;;;11.63;66.12;100350.47;5091932;28;20024;-47
2024/01/24 03:12:56;;;;;;;15.20;6.75;;;;;;;11.49;65.96;100355.41;5091747;28;20505;-47
2024/01/24 03:15:22;;;;;;;17.23;6.75;;;;;;;11.33;66.09;100352.78;5091911;28;20144;-47
2024/01/24 03:17:47;;;;;;;16.77;6.90;;;;;;;11.24;66.63;100356.38;5107537;28;20497;-47
2024/01/24 03:20:14;;;;;;;14.93;6.82;;;;;;;11.14;66.67;100357.34;5107408;28;20093;-47
2024/01/24 03:22:41;;;;;;;13.65;6.25;;;;;;;10.97;66.97;100359.16;5092138;28;20111;-47
2024/01/24 03:25:07;;;;;;;14.95;6.47;;;;;;;10.87;66.97;100358.47;5107381;28;20032;-47
2024/01/24 03:27:33;;;;;;;13.07;5.93;;;;;;;10.77;67.53;100355.97;5091746;28;20047;-47
2024/01/24 03:29:59;;;;;;;13.57;6.43;;;;;;;10.72;67.50;100353.00;5091496;28;20505;-47
2024/01/24 03:32:25;;;;;;;15.45;6.30;;;;;;;10.59;67.75;100350.84;5107341;28;20020;-47
2024/01/24 03:34:57;;;;;;;14.13;5.47;;;;;;;10.35;68.45;100337.63;5091721;28;20035;-47
2024/01/24 03:37:23;;;;;;;11.65;5.10;;;;;;;10.41;68.29;100337.00;5107352;28;20032;-47
2024/01/24 03:39:48;;;;;;;13.38;5.25;;;;;;;10.37;68.80;100335.66;5091739;28;20020;-47
2024/01/24 03:42:14;;;;;;;11.10;4.43;;;;;;;10.56;68.97;100337.19;5091717;28;20346;-47
2024/01/24 03:44:40;;;;;;;9.23;4.18;;;;;;;10.68;68.23;100335.91;5091631;28;20052;-47
2024/01/24 03:47:06;;;;;;;11.05;4.65;;;;;;;10.68;67.77;100332.47;5091558;28;20037;-47
2024/01/24 03:49:32;;;;;;;10.95;5.15;;;;;;;10.61;68.42;100321.00;5107281;28;20465;-47
2024/01/24 03:51:58;;;;;;;11.48;5.05;;;;;;;10.57;68.46;100333.59;5091592;28;20363;-47
2024/01/24 03:54:24;;;;;;;15.30;5.38;;;;;;;10.42;68.32;100330.75;5091577;28;20094;-47
2024/01/24 03:56:50;;;;;;;14.15;5.70;;;;;;;10.20;68.85;100337.34;5091523;28;20397;-47
2024/01/24 03:59:16;;;;;;;9.43;5.07;;;;;;;10.04;69.27;100329.41;5107159;28;20044;-47
2024/01/24 04:01:42;;;;;;;11.13;4.95;;;;;;;9.89;70.11;100335.22;5091446;28;20111;-47
2024/01/24 04:04:08;;;;;;;15.25;4.70;;;;;;;9.99;69.91;100333.31;5091317;28;20031;-47
2024/01/24 04:06:35;;;;;;;10.98;5.53;;;;;;;10.00;68.83;100334.97;5091338;28;20038;-47
2024/01/24 04:09:03;;;;;;;9.07;4.28;;;;;;;9.74;68.92;100335.00;5091344;28;20100;-47
2024/01/24 04:11:28;;;;;;;11.45;4.70;;;;;;;9.62;69.80;100346.69;5106997;28;20115;-47
2024/01/24 04:13:55;;;;;;;8.82;3.63;;;;;;;9.45;69.49;100337.88;5091379;28;20512;-47
2024/01/24 04:16:21;;;;;;;8.88;3.78;;;;;;;9.32;70.21;100347.94;5091236;28;20016;-47
2024/01/24 04:18:46;;;;;;;8.25;4.20;;;;;;;9.25;70.21;100347.69;5107004;28;20452;-47
2024/01/24 04:21:12;;;;;;;10.43;4.07;;;;;;;9.14;70.05;100340.91;5091407;28;20451;-47
2024/01/24 04:23:38;;;;;;;9.73;4.15;;;;;;;9.08;70.46;100338.06;5092226;28;20066;-47
2024/01/24 04:26:04;;;;;;;11.82;4.07;;;;;;;9.09;71.06;100332.66;5094805;28;20028;-47
2024/01/24 04:28:31;;;;;;;7.75;3.83;;;;;;;9.18;70.74;100333.56;5110593;28;20032;-47
2024/01/24 04:30:57;;;;;;;11.48;4.45;;;;;;;9.13;71.06;100330.56;5094539;28;20047;-47
2024/01/24 04:33:22;;;;;;;8.60;4.55;;;;;;;9.12;71.31;100321.09;5110419;28;20028;-47
2024/01/24 04:35:51;;;;;;;8.00;3.83;;;;;;;9.27;72.29;100322.19;5110420;28;20031;-47
2024/01/24 04:38:17;;;;;;;9.55;3.35;;;;;;;9.78;71.56;100317.97;5094713;28;20497;-47
2024/01/24 04:40:43;;;;;;;11.35;4.40;;;;;;;10.16;69.60;100309.78;5094620;28;20035;-47
2024/01/24 04:43:09;;;;;;;10.38;3.92;;;;;;;10.34;68.26;100307.94;5094532;28;20065;-47
2024/01/24 04:45:34;;;;;;;10.63;4.43;;;;;;;10.37;66.88;100307.63;5094496;28;20024;-48
2024/01/24 04:48:00;;;;;;;9.20;3.70;;;;;;;10.27;66.89;100311.31;5110201;28;20024;-47
2024/01/24 04:50:26;;;;;;;9.88;3.63;;;;;;;10.18;66.46;100313.06;5094413;28;20045;-47
2024/01/24 04:52:52;;;;;;;9.93;3.90;;;;;;;9.95;67.00;100323.31;5094372;28;20053;-47
2024/01/24 04:55:18;;;;;;;9.45;3.78;;;;;;;9.79;66.97;100321.41;5094339;28;20401;-47
2024/01/24 04:57:44;;;;;;;8.32;3.70;;;;;;;9.53;68.85;100339.75;5094366;28;20085;-47
2024/01/24 05:00:11;;;;;;;10.07;3.80;;;;;;;9.56;69.60;100339.47;5094496;28;20024;-47
2024/01/24 05:02:38;;;;;;;10.32;3.80;;;;;;;9.81;69.79;100337.81;5094141;28;20033;-47
2024/01/24 05:05:06;;;;;;;11.13;3.80;;;;;;;10.02;69.63;100345.31;5094056;28;20473;-47
2024/01/24 05:07:34;;;;;;;11.57;3.55;;;;;;;10.27;68.54;100358.56;5092964;28;20059;-47
2024/01/24 05:10:03;;;;;;;11.30;3.88;;;;;;;10.15;67.63;100356.19;5094080;28;20055;-47
2024/01/24 05:12:29;;;;;;;9.07;4.13;;;;;;;10.01;67.44;100364.66;5092864;28;20050;-47
2024/01/24 05:14:56;;;;;;;9.32;4.10;;;;;;;9.93;67.64;100360.16;5094044;28;20032;-47
2024/01/24 05:17:21;;;;;;;10.70;3.58;;;;;;;9.81;67.79;100350.91;5092692;28;20020;-47
2024/01/24 05:19:48;;;;;;;10.30;4.40;;;;;;;9.79;67.39;100365.97;5093913;28;20127;-47
2024/01/24 05:22:15;;;;;;;10.45;4.18;;;;;;;9.64;67.67;100368.34;5093814;28;20028;-47
2024/01/24 05:24:45;;;;;;;11.25;4.05;;;;;;;9.59;68.04;100370.59;5093717;28;20111;-47
2024/01/24 05:27:10;;;;;;;11.35;4.22;;;;;;;9.51;68.02;100373.97;5093668;28;20521;-47
2024/01/24 05:29:36;;;;;;;9.88;3.67;;;;;;;9.42;68.65;100372.25;5093404;28;20075;-48
2024/01/24 05:32:02;;;;;;;13.77;4.20;;;;;;;9.45;68.43;100376.38;5092557;28;20036;-47
2024/01/24 05:34:28;;;;;;;14.35;3.78;;;;;;;9.47;68.46;100375.25;5093473;28;20053;-47
2024/01/24 05:36:54;;;;;;;8.70;3.95;;;;;;;9.50;67.72;100384.63;5109242;28;20105;-47
2024/01/24 05:39:20;;;;;;;7.35;3.40;;;;;;;9.51;68.13;100394.13;5093474;28;20494;-47
2024/01/24 05:41:45;;;;;;;10.75;3.65;;;;;;;9.66;68.13;100402.25;5093384;28;20028;-47
2024/01/24 05:44:11;;;;;;;10.90;3.30;;;;;;;9.93;66.90;100410.00;5092112;28;20023;-47
2024/01/24 05:46:37;;;;;;;10.35;3.25;;;;;;;9.92;66.24;100418.00;5093358;28;20398;-47
2024/01/24 05:49:03;;;;;;;6.03;3.28;;;;;;;9.84;66.19;100417.94;5093546;28;20103;-47
2024/01/24 05:51:29;;;;;;;7.22;3.17;;;;;;;9.74;66.47;100431.19;5108900;28;20390;-47
2024/01/24 05:53:54;;;;;;;10.27;3.30;;;;;;;9.59;66.41;100438.75;5108871;28;20024;-47
2024/01/24 05:56:20;;;;;;;9.98;3.33;;;;;;;9.52;66.61;100438.53;5108743;28;20104;-47
2024/01/24 05:58:46;;;;;;;8.98;3.13;;;;;;;9.44;66.54;100429.75;5108782;28;20028;-47
2024/01/24 06:01:12;;;;;;;11.77;3.63;;;;;;;9.31;66.12;100444.03;5093051;28;20024;-47
2024/01/24 06:03:40;;;;;;;12.15;3.58;;;;;;;9.23;67.11;100433.47;5092982;28;20020;-47
2024/01/24 06:06:06;;;;;;;7.03;3.78;;;;;;;9.26;67.63;100435.00;5108587;28;20032;-47
2024/01/24 06:08:32;;;;;;;10.45;3.42;;;;;;;9.34;67.78;100438.53;5108603;28;20516;-47
2024/01/24 06:10:58;;;;;;;14.98;4.72;;;;;;;9.24;68.09;100445.63;5092895;28;20111;-47
2024/01/24 06:13:24;;;;;;;12.20;4.47;;;;;;;9.30;68.82;100454.69;5092837;28;20099;-48
2024/01/24 06:15:51;;;;;;;18.38;5.88;;;;;;;9.39;67.89;100456.41;5108765;28;20508;-47
2024/01/24 06:18:17;;;;;;;15.82;5.00;;;;;;;9.23;68.02;100464.09;5092953;28;20387;-47
2024/01/24 06:20:43;;;;;;;14.95;3.72;;;;;;;9.03;68.02;100473.88;5092662;28;20020;-47
2024/01/24 06:23:09;;;;;;;18.58;4.88;;;;;;;8.96;67.99;100471.81;5108578;28;20468;-47
2024/01/24 06:25:35;;;;;;;14.73;3.95;;;;;;;8.97;67.77;100478.72;5092546;28;20035;-47
2024/01/24 06:28:00;;;;;;;15.95;3.67;;;;;;;8.85;67.87;100485.09;5091256;28;20111;-47
2024/01/24 06:30:26;;;;;;;14.27;3.80;;;;;;;8.90;68.42;100501.22;5092270;28;20389;-47
2024/01/24 06:32:53;;;;;;;8.73;3.20;;;;;;;9.10;68.52;100495.91;5092737;28;20139;-47
2024/01/24 06:35:19;;;;;;;11.68;3.50;;;;;;;9.23;67.06;100500.78;5108335;28;20536;-47
2024/01/24 06:37:45;;;;;;;6.53;3.00;;;;;;;9.20;67.32;100515.00;5092430;28;20107;-47
2024/01/24 06:40:11;;;;;;;8.63;3.47;;;;;;;9.39;66.87;100509.63;5108021;28;20111;-47
2024/01/24 06:42:38;;;;;;;10.90;3.60;;;;;;;9.48;66.55;100526.28;5092350;28;20047;-47
2024/01/24 06:45:06;;;;;;;8.05;3.42;;;;;;;9.39;66.52;100532.41;5091162;28;20378;-47
2024/01/24 06:47:32;;;;;;;7.88;3.28;;;;;;;9.52;67.03;100517.16;5091803;28;20044;-47
2024/01/24 06:49:57;;;;;;;10.00;3.58;;;;;;;9.71;66.56;100529.28;5092262;28;20426;-49
2024/01/24 06:52:23;;;;;;;7.93;3.58;;;;;;;9.83;66.40;100537.75;5091136;28;20024;-49
2024/01/24 06:54:49;;;;;;;11.65;4.43;;;;;;;9.86;65.72;100527.00;5107856;28;20031;-49
2024/01/24 06:57:15;;;;;;;6.90;3.50;;;;;;;9.84;65.63;100533.34;5092323;28;20485;-49
2024/01/24 06:59:40;;;;;;;18.75;4.60;;;;;;;9.70;65.38;100526.81;5092324;28;20024;-49
2024/01/24 07:02:06;;;;;;;16.85;6.47;;;;;;;9.52;65.53;100535.50;5107694;28;20020;-49
2024/01/24 07:04:32;;;;;;;15.23;6.65;;;;;;;9.46;66.35;100533.47;5091837;28;20020;-47
2024/01/24 07:06:58;;;;;;;10.00;4.18;;;;;;;9.49;65.48;100532.34;5107655;28;20032;-47
2024/01/24 07:09:24;;;;;;;15.90;6.13;;;;;;;9.48;66.25;100552.50;5091761;28;20016;-47
2024/01/24 07:11:50;;;;;;;13.60;4.90;;;;;;;9.59;66.76;100548.81;5107618;28;20080;-47
2024/01/24 07:14:15;;;;;;;12.40;4.13;;;;;;;9.89;66.32;100554.69;5107609;28;20089;-47
2024/01/24 07:16:45;;;;;;;15.07;3.97;;;;;;;10.01;65.48;100564.00;5107539;28;20390;-47
2024/01/24 07:19:10;;;;;;;14.02;5.40;;;;;;;9.96;65.51;100566.22;5107442;28;20089;-47
2024/01/24 07:21:36;;;;;;;18.27;4.07;;;;;;;9.83;65.59;100561.38;5107398;28;20027;-49
2024/01/24 07:24:03;;;;;;;14.05;6.35;;;;;;;9.79;66.79;100555.59;5091942;28;20363;-49
2024/01/24 07:26:29;;;;;;;16.77;8.63;;;;;;;10.15;66.12;100549.53;5091782;28;20502;-50
2024/01/24 07:28:54;;;;;;;15.27;5.82;;;;;;;10.29;65.56;100545.53;5091759;28;20063;-49
2024/01/24 07:31:23;;;;;;;15.48;5.50;;;;;;;10.44;65.06;100543.22;5090269;28;20051;-49
2024/01/24 07:33:49;;;;;;;17.13;5.20;;;;;;;10.47;64.29;100556.84;5091719;28;20028;-49
2024/01/24 07:36:15;;;;;;;15.43;5.40;;;;;;;10.53;63.99;100552.78;5091609;28;20096;-49
2024/01/24 07:38:40;;;;;;;13.15;4.88;;;;;;;10.85;63.68;100540.84;5091687;28;20024;-49
2024/01/24 07:41:07;;;;;;;15.48;5.57;;;;;;;11.45;62.73;100532.03;5091587;28;20021;-49
2024/01/24 07:43:33;;;;;;;14.70;5.18;;;;;;;12.27;60.20;100511.09;5091760;28;20024;-49
2024/01/24 07:45:59;;;;;;;17.02;5.57;;;;;;;13.10;58.76;100507.25;5091607;28;20397;-49
2024/01/24 07:48:25;;;;;;;11.32;5.00;;;;;;;13.72;54.97;100499.34;5091599;28;20495;-49
2024/01/24 07:50:51;;;;;;;15.18;5.22;;;;;;;13.27;54.34;100503.53;5107174;28;20444;-49
2024/01/24 07:53:16;;;;;;;12.50;5.93;;;;;;;12.64;55.69;100518.44;5090203;28;20031;-49
2024/01/24 07:55:42;;;;;;;12.07;5.20;;;;;;;12.19;57.19;100525.06;5091478;28;20071;-49
2024/01/24 07:58:08;;;;;;;13.23;5.00;;;;;;;11.83;58.35;100537.69;5091767;28;20016;-49
2024/01/24 08:00:34;;;;;;;11.00;4.90;;;;;;;11.66;60.12;100537.69;5111087;28;20028;-49
2024/01/24 08:03:00;;;;;;;11.95;5.32;;;;;;;11.66;62.74;100545.56;5094347;28;20048;-49
2024/01/24 08:05:29;;;;;;;17.15;6.45;;;;;;;11.91;62.62;100551.75;5110916;28;20036;-49
2024/01/24 08:07:55;;;;;;;15.93;6.13;;;;;;;12.22;62.33;100555.53;5095245;28;20023;-49
2024/01/24 08:10:22;;;;;;;9.43;5.32;;;;;;;12.43;60.74;100557.66;5095144;28;20032;-50
2024/01/24 08:12:49;;;;;;;12.48;5.82;;;;;;;12.59;61.58;100553.16;5110882;28;20533;-49
2024/01/24 08:15:15;;;;;;;13.95;5.50;;;;;;;12.65;59.86;100564.03;5095021;28;20028;-47
2024/01/24 08:17:41;;;;;;;15.02;5.50;;;;;;;12.61;60.23;100568.00;5095033;28;20498;-47
2024/01/24 08:20:10;;;;;;;16.85;5.32;;;;;;;12.48;59.84;100571.97;5110691;28;20035;-47
2024/01/24 08:22:36;;;;;;;11.05;5.25;;;;;;;12.48;60.75;100581.69;5094996;28;20020;-47
2024/01/24 08:25:02;;;;;;;10.77;5.25;;;;;;;12.52;59.68;100575.91;5094864;28;20027;-47
2024/01/24 08:27:28;;;;;;;12.07;5.28;;;;;;;12.45;59.64;100587.28;5094953;28;20056;-47
2024/01/24 08:29:53;;;;;;;14.13;6.97;;;;;;;12.49;59.84;100584.13;5094632;28;20516;-47
2024/01/24 08:32:19;;;;;;;16.90;6.65;;;;;;;12.39;60.20;100589.59;5093606;28;20080;-47
2024/01/24 08:34:45;;;;;;;18.08;7.15;;;;;;;12.25;60.05;100592.03;5094845;28;20063;-47
2024/01/24 08:37:12;;;;;;;22.15;5.88;;;;;;;12.29;61.17;100588.09;5094772;28;20020;-47
2024/01/24 08:39:40;;;;;;;15.10;6.25;;;;;;;12.27;61.07;100584.81;5094686;28;20023;-47
2024/01/24 08:42:06;;;;;;;10.15;5.75;;;;;;;12.34;59.79;100591.06;5094576;28;20024;-47
2024/01/24 08:44:32;;;;;;;14.18;6.00;;;;;;;12.38;60.34;100579.22;5094521;28;20490;-49
2024/01/24 08:46:58;;;;;;;14.93;5.28;;;;;;;12.44;59.83;100570.66;5110213;28;20039;-49
2024/01/24 08:49:23;;;;;;;8.55;4.95;;;;;;;12.37;59.49;100572.28;5093412;28;20024;-49
2024/01/24 08:51:49;;;;;;;15.20;5.32;;;;;;;12.30;60.04;100576.59;5110129;28;20443;-49
2024/01/24 08:54:15;;;;;;;10.50;5.53;;;;;;;12.30;59.29;100580.03;5094399;28;20042;-47
2024/01/24 08:56:41;;;;;;;11.80;5.53;;;;;;;12.13;60.17;100581.00;5110002;28;20056;-47
2024/01/24 08:59:07;;;;;;;15.20;6.32;;;;;;;12.13;60.66;100584.50;5094305;28;20375;-47
2024/01/24 09:01:32;;;;;;;16.60;6.22;;;;;;;12.36;60.79;100583.84;5094255;28;20052;-47
2024/01/24 09:03:59;;;;;;;13.88;6.25;;;;;;;12.45;60.72;100580.19;5094179;28;20511;-47
2024/01/24 09:06:25;;;;;;;14.57;6.60;;;;;;;12.61;59.99;100584.63;5094064;28;20028;-47
2024/01/24 09:08:52;;;;;;;15.30;6.28;;;;;;;12.56;60.17;100581.69;5109576;28;20034;-47
2024/01/24 09:11:19;;;;;;;15.77;7.28;;;;;;;12.79;60.97;100592.34;5092552;28;20103;-47
2024/01/24 09:13:47;;;;;;;13.52;6.55;;;;;;;13.06;59.62;100590.28;5094035;28;20020;-47
2024/01/24 09:16:15;;;;;;;13.70;6.82;;;;;;;12.94;58.88;100581.94;5093866;28;20536;-49
2024/01/24 09:18:42;;;;;;;12.75;6.78;;;;;;;12.77;59.07;100583.78;5093946;28;20090;-49
2024/01/24 09:21:08;;;;;;;12.95;5.88;;;;;;;12.62;59.34;100590.72;5093819;28;20462;-49
2024/01/24 09:23:34;;;;;;;29.67;10.60;;;;;;;12.60;60.32;100590.88;5092752;28;20024;-49
2024/01/24 09:26:02;;;;;;;26.27;13.25;;;;;;;12.64;59.91;100594.84;5092581;28;20028;-49
2024/01/24 09:28:29;;;;;;;28.30;19.48;;;;;;;12.66;59.86;100584.13;5093727;28;20039;-49
2024/01/24 09:30:55;;;;;;;17.65;14.32;;;;;;;12.72;59.69;100588.75;5093399;28;20051;-47
2024/01/24 09:33:20;;;;;;;14.25;6.25;;;;;;;12.83;59.23;100585.75;5093626;28;20024;-47
2024/01/24 09:35:46;;;;;;;25.60;11.38;;;;;;;12.80;59.91;100591.34;5093586;28;20489;-47
2024/01/24 09:38:13;;;;;;;14.80;7.30;;;;;;;12.86;59.63;100590.69;5093521;28;20112;-47
2024/01/24 09:40:40;;;;;;;11.70;6.70;;;;;;;12.93;59.80;100596.09;5093452;28;20077;-47
2024/01/24 09:43:08;;;;;;;13.40;6.50;;;;;;;12.93;60.14;100599.53;5092149;28;20044;-47
2024/01/24 09:45:40;;;;;;;14.80;5.68;;;;;;;13.11;60.66;100594.06;5093338;28;20026;-47
2024/01/24 09:48:08;;;;;;;14.57;6.97;;;;;;;13.49;59.94;100589.00;5093408;28;20421;-48
2024/01/24 09:50:35;;;;;;;11.98;6.60;;;;;;;13.57;58.31;100578.41;5093266;28;20023;-48
2024/01/24 09:53:07;;;;;;;15.07;7.00;;;;;;;13.50;58.54;100580.13;5093202;28;20020;-49
2024/01/24 09:55:34;;;;;;;13.98;6.25;;;;;;;13.50;58.33;100579.28;5093252;28;20027;-49
2024/01/24 09:58:00;;;;;;;12.35;6.70;;;;;;;13.64;58.85;100588.28;5093173;28;20540;-49
2024/01/24 10:00:26;;;;;;;13.00;6.43;;;;;;;13.83;58.83;100587.84;5109093;28;20406;-49
2024/01/24 10:02:51;;;;;;;15.60;6.95;;;;;;;14.10;58.58;100583.03;5093043;28;20013;-49
2024/01/24 10:05:19;;;;;;;14.55;6.50;;;;;;;14.20;57.47;100575.69;5108887;28;20032;-49
2024/01/24 10:07:45;;;;;;;13.10;6.05;;;;;;;14.16;57.38;100583.13;5074923;28;20505;-49
2024/01/24 10:10:13;;;;;;;17.38;6.15;;;;;;;14.34;58.09;100587.28;5093096;28;20402;-49
2024/01/24 10:12:41;;;;;;;12.63;6.95;;;;;;;14.67;57.60;100579.09;5092859;28;20044;-49
2024/01/24 10:15:08;;;;;;;19.08;7.30;;;;;;;14.95;59.40;100574.00;5092969;28;20036;-49
2024/01/24 10:17:34;;;;;;;11.32;5.93;;;;;;;15.22;57.74;100569.91;5108444;28;20032;-49
2024/01/24 10:20:00;;;;;;;12.93;7.10;;;;;;;15.27;56.35;100562.25;5108367;28;20036;-49
2024/01/24 10:22:26;;;;;;;18.27;9.18;;;;;;;15.57;55.91;100570.97;5091963;28;20031;-49
2024/01/24 10:24:55;;;;;;;20.98;10.48;;;;;;;15.95;54.62;100557.50;5108563;28;20040;-49
2024/01/24 10:27:22;;;;;;;19.20;9.10;;;;;;;16.13;54.06;100561.56;5091240;28;20077;-49
2024/01/24 10:29:48;;;;;;;19.35;7.13;;;;;;;16.38;53.30;100562.78;5092263;28;20042;-49
2024/01/24 10:32:13;;;;;;;30.38;18.30;;;;;;;16.47;52.64;100563.47;5108215;28;20040;-49
2024/01/24 10:34:39;;;;;;;21.38;13.57;;;;;;;16.74;52.55;100556.53;5092511;28;20035;-47
2024/01/24 10:37:10;;;;;;;13.45;7.47;;;;;;;17.08;51.23;100565.50;5092434;28;20385;-47
2024/01/24 10:39:37;;;;;;;15.02;6.47;;;;;;;17.29;50.36;100559.28;5092428;28;20020;-47
2024/01/24 10:42:09;;;;;;;15.60;7.07;;;;;;;17.46;50.15;100557.06;5092270;28;20024;-47
2024/01/24 10:44:35;;;;;;;12.68;6.50;;;;;;;17.55;49.15;100557.72;5092547;28;20027;-46
2024/01/24 10:47:02;;;;;;;9.57;5.88;;;;;;;17.65;48.46;100550.19;5092762;28;20367;-45
2024/01/24 10:49:31;;;;;;;16.27;6.50;;;;;;;17.53;48.20;100552.63;5092267;28;20031;-45
2024/01/24 10:51:58;;;;;;;19.95;5.88;;;;;;;17.43;48.74;100556.69;5092203;28;20048;-45
2024/01/24 10:54:24;;;;;;;20.45;6.15;;;;;;;17.31;49.67;100556.44;5092172;28;20101;-45
2024/01/24 10:56:50;;;;;;;12.80;5.50;;;;;;;17.42;49.98;100549.72;5090945;28;20020;-47
2024/01/24 10:59:17;;;;;;;13.50;6.07;;;;;;;17.77;49.89;100548.59;5091989;28;20044;-47
2024/01/24 11:01:44;;;;;;;15.27;6.35;;;;;;;18.35;49.10;100549.88;5092050;28;20026;-48
2024/01/24 11:04:13;;;;;;;19.23;6.82;;;;;;;19.03;47.52;100546.09;5107632;28;20024;-47
2024/01/24 11:06:50;;;;;;;17.73;6.00;;;;;;;19.47;46.13;100539.97;5092008;28;20024;-47
2024/01/24 11:09:33;;;;;;;12.23;6.28;;;;;;;19.99;45.80;100533.72;5091946;28;20152;-47
2024/01/24 11:12:00;;;;;;;18.80;5.70;;;;;;;20.49;44.74;100531.84;5091996;28;20062;-47
2024/01/24 11:14:34;;;;;;;14.88;5.35;;;;;;;20.72;43.73;100530.41;5091939;28;20066;-47